Time;durP1;ratioP1;P1;durP2;ratioP2;P2;SDS_P1;SDS_P2;PMS_P1;PMS_P2;Temp;Humidity;BMP_temperature;BMP_pressure;BME280_temperature;BME280_humidity;BME280_pressure;Samples;Min_cycle;Max_cycle;Signal;HPM_P1;HPM_P2
2020/12/09 00:00:37;;;;;;;3.70;2.90;;;;;;;-6.34;71.83;101044.81;1770799;81;21202;-73
2020/12/09 00:03:06;;;;;;;5.50;2.90;;;;;;;-6.33;71.91;101049.16;1770797;81;20992;-73
2020/12/09 00:05:33;;;;;;;3.63;1.83;;;;;;;-6.32;71.97;101048.27;1770749;81;20985;-73
2020/12/09 00:08:02;;;;;;;3.87;2.33;;;;;;;-6.32;72.01;101052.22;1770814;81;20953;-74
2020/12/09 00:10:30;;;;;;;1.70;1.60;;;;;;;-6.31;72.05;101051.75;1770809;81;20941;-74
2020/12/09 00:12:58;;;;;;;2.13;1.93;;;;;;;-6.32;72.13;101046.06;1772432;80;21200;-73
2020/12/09 00:15:26;;;;;;;2.73;1.90;;;;;;;-6.32;72.36;101053.53;1774491;80;21028;-73
2020/12/09 00:17:54;;;;;;;2.07;1.97;;;;;;;-6.32;72.44;101056.59;1774586;80;21529;-73
2020/12/09 00:20:22;;;;;;;2.50;1.90;;;;;;;-6.34;72.46;101052.70;1790091;79;20922;-74
2020/12/09 00:22:50;;;;;;;1.97;1.80;;;;;;;-6.33;72.58;101053.56;1769716;81;21118;-73
2020/12/09 00:25:18;;;;;;;3.83;2.70;;;;;;;-6.34;72.65;101055.77;1781207;80;21209;-72
2020/12/09 00:27:46;;;;;;;2.80;2.47;;;;;;;-6.33;72.84;101054.88;1769598;81;20976;-73
2020/12/09 00:30:14;;;;;;;1.73;1.63;;;;;;;-6.34;72.92;101051.82;1781269;80;20930;-73
2020/12/09 00:32:41;;;;;;;4.23;2.40;;;;;;;-6.34;73.03;101051.82;1769724;81;20924;-73
2020/12/09 00:35:09;;;;;;;6.17;2.63;;;;;;;-6.34;73.11;101058.41;1781141;80;20986;-73
2020/12/09 00:37:37;;;;;;;2.37;2.17;;;;;;;-6.34;73.29;101047.45;1769805;81;21376;-72
2020/12/09 00:40:05;;;;;;;3.37;1.93;;;;;;;-6.34;73.40;101040.86;1781255;80;20986;-73
2020/12/09 00:42:34;;;;;;;1.67;1.57;;;;;;;-6.34;73.46;101050.08;1769629;81;20884;-72
2020/12/09 00:45:02;;;;;;;4.80;2.77;;;;;;;-6.33;73.53;101042.58;1773924;80;20949;-74
2020/12/09 00:47:30;;;;;;;3.13;2.83;;;;;;;-6.32;73.67;101044.31;1787523;80;20987;-73
2020/12/09 00:50:27;;;;;;;3.70;2.80;;;;;;;-6.32;73.73;101044.31;1772638;79;21336;-73
2020/12/09 00:52:30;;;;;;;2.40;2.23;;;;;;;-6.31;73.80;101041.22;1742560;82;21016;-73
2020/12/09 00:54:58;;;;;;;2.17;1.77;;;;;;;-6.31;73.89;101053.92;1705625;82;21032;-74
2020/12/09 00:57:26;;;;;;;3.10;2.83;;;;;;;-6.28;74.02;101046.42;1768928;79;20948;-73
2020/12/09 00:59:54;;;;;;;3.43;2.53;;;;;;;-6.27;74.10;101038.91;1775231;80;20930;-74
2020/12/09 01:02:22;;;;;;;3.43;2.10;;;;;;;-6.24;74.18;101048.06;1775146;80;21201;-74
2020/12/09 01:04:52;;;;;;;4.43;2.20;;;;;;;-6.24;74.30;101047.20;1775046;80;20925;-73
2020/12/09 01:07:20;;;;;;;2.00;1.90;;;;;;;-6.22;74.48;101040.98;1775211;80;21021;-73
2020/12/09 01:09:48;;;;;;;2.90;2.60;;;;;;;-6.18;74.58;101037.81;1775074;80;21594;-74
2020/12/09 01:12:16;;;;;;;2.63;2.43;;;;;;;-6.16;74.59;101043.90;1774998;80;21004;-73
2020/12/09 01:14:44;;;;;;;3.27;2.03;;;;;;;-6.14;74.76;101042.97;1771626;81;21199;-73
2020/12/09 01:17:12;;;;;;;2.20;2.10;;;;;;;-6.11;74.85;101041.58;1772763;81;21001;-73
2020/12/09 01:19:40;;;;;;;4.27;1.77;;;;;;;-6.06;74.84;101043.22;1773814;81;20953;-73
2020/12/09 01:22:08;;;;;;;2.10;1.90;;;;;;;-6.03;74.88;101035.25;1774132;79;20993;-72
2020/12/09 01:24:36;;;;;;;1.90;1.70;;;;;;;-6.00;74.84;101051.83;1773702;81;20997;-73
2020/12/09 01:27:04;;;;;;;8.77;2.43;;;;;;;-5.95;74.85;101059.12;1774231;81;21366;-72
2020/12/09 01:29:32;;;;;;;1.77;1.67;;;;;;;-5.90;74.84;101057.66;1774330;81;20981;-73
2020/12/09 01:32:01;;;;;;;3.00;2.13;;;;;;;-5.86;74.82;101063.28;1774047;80;20898;-73
2020/12/09 01:34:29;;;;;;;4.00;3.40;;;;;;;-5.81;74.81;101072.36;1773860;81;21001;-73
2020/12/09 01:36:59;;;;;;;3.37;2.50;;;;;;;-5.76;74.82;101067.83;1770170;81;21003;-74
2020/12/09 01:39:27;;;;;;;2.43;2.23;;;;;;;-5.72;74.80;101076.94;1768955;81;21199;-72
2020/12/09 01:41:57;;;;;;;1.73;1.63;;;;;;;-5.69;74.84;101081.70;1768597;81;21563;-72
2020/12/09 01:44:25;;;;;;;3.07;2.10;;;;;;;-5.66;74.89;101078.53;1793159;79;21166;-73
2020/12/09 01:46:56;;;;;;;3.07;2.63;;;;;;;-5.62;74.88;101074.04;1792368;80;20980;-73
2020/12/09 01:49:24;;;;;;;3.07;1.90;;;;;;;-5.59;74.90;101069.55;1813308;79;20942;-74
2020/12/09 01:51:52;;;;;;;3.03;2.50;;;;;;;-5.54;74.85;101074.70;1751452;80;21198;-73
2020/12/09 01:54:21;;;;;;;4.13;2.77;;;;;;;-5.51;74.88;101082.50;1773136;81;20977;-73
2020/12/09 01:57:10;;;;;;;1.73;1.33;;;;;;;-5.48;74.90;101077.15;1772966;81;20992;-74
2020/12/09 01:59:40;;;;;;;4.70;3.13;;;;;;;-5.47;74.87;101074.94;1772413;81;20969;-73
2020/12/09 02:02:08;;;;;;;1.27;1.17;;;;;;;-5.44;74.88;101083.20;1770970;81;21008;-74
2020/12/09 02:04:36;;;;;;;4.27;2.50;;;;;;;-5.43;74.83;101069.12;1770924;81;21974;-74
2020/12/09 02:07:05;;;;;;;2.47;1.77;;;;;;;-5.41;74.82;101073.89;1770860;81;20941;-74
2020/12/09 02:09:33;;;;;;;2.47;1.83;;;;;;;-5.40;74.83;101077.80;1770893;81;20898;-73
2020/12/09 02:12:01;;;;;;;3.23;2.33;;;;;;;-5.37;74.79;101084.75;1770807;81;21025;-73
2020/12/09 02:14:30;;;;;;;1.57;1.47;;;;;;;-5.36;74.76;101071.53;1780974;79;21076;-73
2020/12/09 02:16:58;;;;;;;4.10;2.17;;;;;;;-5.35;74.74;101085.13;1782993;80;21237;-74
2020/12/09 02:19:27;;;;;;;3.60;2.30;;;;;;;-5.32;74.75;101081.99;1791068;80;21058;-74
2020/12/09 02:21:55;;;;;;;2.80;1.97;;;;;;;-5.30;74.77;101078.39;1791314;80;20935;-73
2020/12/09 02:24:25;;;;;;;1.87;1.70;;;;;;;-5.26;74.79;101080.48;1790441;80;20951;-73
2020/12/09 02:26:53;;;;;;;1.77;1.27;;;;;;;-5.23;74.75;101086.98;1787582;80;21007;-73
2020/12/09 02:29:22;;;;;;;2.10;1.90;;;;;;;-5.21;74.77;101087.80;1791016;80;21146;-73
2020/12/09 02:31:50;;;;;;;3.10;2.80;;;;;;;-5.19;74.75;101088.62;1790849;80;21050;-73
2020/12/09 02:34:18;;;;;;;3.93;2.63;;;;;;;-5.18;74.79;101080.67;1791068;80;20983;-73
2020/12/09 02:36:46;;;;;;;4.57;2.53;;;;;;;-5.18;74.81;101089.90;1790950;80;21010;-73
2020/12/09 02:39:14;;;;;;;2.77;1.63;;;;;;;-5.17;74.83;101085.48;1790978;80;21002;-74
2020/12/09 02:41:42;;;;;;;1.73;1.63;;;;;;;-5.16;74.79;101095.13;1790994;80;21372;-74
2020/12/09 02:44:09;;;;;;;1.27;1.27;;;;;;;-5.15;74.86;101092.45;1772130;80;21008;-73
2020/12/09 02:46:37;;;;;;;4.53;3.10;;;;;;;-5.13;74.81;101099.00;1757313;80;21018;-72
2020/12/09 02:49:05;;;;;;;2.30;1.77;;;;;;;-5.11;74.88;101097.64;1762326;80;21068;-73
2020/12/09 02:51:33;;;;;;;4.07;1.83;;;;;;;-5.11;74.90;101095.86;1746691;79;21178;-72
2020/12/09 02:54:01;;;;;;;3.20;2.10;;;;;;;-5.08;74.89;101097.53;1785065;78;21185;-73
2020/12/09 02:56:28;;;;;;;2.27;1.90;;;;;;;-5.07;74.82;101096.63;1790792;80;20998;-73
2020/12/09 02:58:56;;;;;;;1.97;1.80;;;;;;;-5.06;74.79;101102.33;1790924;80;21018;-73
2020/12/09 03:01:25;;;;;;;2.53;1.63;;;;;;;-5.05;74.82;101105.36;1790869;80;20991;-73
2020/12/09 03:03:53;;;;;;;1.27;1.23;;;;;;;-5.05;74.79;101105.36;1791017;80;21050;-73
2020/12/09 03:06:20;;;;;;;2.07;1.57;;;;;;;-5.05;74.77;101106.22;1791094;80;21352;-74
2020/12/09 03:08:48;;;;;;;1.70;1.60;;;;;;;-5.05;74.76;101100.94;1790903;80;21007;-74
2020/12/09 03:11:16;;;;;;;3.13;2.07;;;;;;;-5.03;74.75;101106.17;1790878;80;21081;-73
2020/12/09 03:13:44;;;;;;;3.50;2.70;;;;;;;-5.01;74.69;101106.98;1786431;79;20924;-74
2020/12/09 03:16:13;;;;;;;1.30;1.20;;;;;;;-5.02;74.62;101107.45;1779092;80;20889;-74
2020/12/09 03:18:41;;;;;;;5.87;2.40;;;;;;;-5.02;74.55;101105.28;1779024;80;21236;-75
2020/12/09 03:21:09;;;;;;;3.27;2.47;;;;;;;-5.03;74.54;101108.38;1787190;79;20988;-73
2020/12/09 03:23:37;;;;;;;3.67;2.63;;;;;;;-5.01;74.53;101101.28;1771220;80;21069;-73
2020/12/09 03:26:05;;;;;;;2.27;2.07;;;;;;;-5.02;74.53;101102.17;1757142;81;21011;-74
2020/12/09 03:28:34;;;;;;;2.27;1.67;;;;;;;-5.02;74.53;101104.81;1771433;81;20923;-73
2020/12/09 03:31:04;;;;;;;2.30;1.87;;;;;;;-5.01;74.53;101107.87;1757203;81;21431;-74
2020/12/09 03:33:32;;;;;;;2.60;2.40;;;;;;;-5.01;74.52;101102.59;1771132;81;21014;-73
2020/12/09 03:36:15;;;;;;;3.60;2.83;;;;;;;-5.01;74.53;101110.52;1757320;81;21012;-74
2020/12/09 03:38:42;;;;;;;2.00;1.90;;;;;;;-5.01;74.47;101109.62;1675072;84;21195;-74
2020/12/09 03:41:10;;;;;;;2.60;2.00;;;;;;;-5.02;74.51;101115.36;1694540;84;21238;-75
2020/12/09 03:43:39;;;;;;;2.53;1.57;;;;;;;-5.02;74.51;101114.51;1694761;84;21406;-74
2020/12/09 03:46:07;;;;;;;4.60;2.33;;;;;;;-5.03;74.49;101108.38;1694478;84;21018;-73
2020/12/09 03:48:35;;;;;;;3.87;2.40;;;;;;;-5.04;74.45;101115.88;1694898;82;21616;-73
2020/12/09 03:51:03;;;;;;;5.57;2.60;;;;;;;-5.04;74.47;101114.55;1694030;84;21056;-74
2020/12/09 03:53:33;;;;;;;2.47;1.87;;;;;;;-5.05;74.49;101115.45;1694809;84;21186;-73
2020/12/09 03:56:01;;;;;;;2.63;1.97;;;;;;;-5.04;74.47;101109.73;1694806;84;21222;-74
2020/12/09 03:58:29;;;;;;;2.27;2.03;;;;;;;-5.06;74.46;101109.78;1694877;83;20993;-73
2020/12/09 04:00:57;;;;;;;2.50;1.87;;;;;;;-5.06;74.49;101107.61;1694668;84;21032;-73
2020/12/09 04:03:25;;;;;;;2.23;2.03;;;;;;;-5.05;74.51;101110.17;1698209;84;21035;-74
2020/12/09 04:05:52;;;;;;;3.07;2.17;;;;;;;-5.06;74.57;101108.46;1700607;84;20956;-74
2020/12/09 04:08:20;;;;;;;3.53;2.40;;;;;;;-5.05;74.59;101105.36;1700422;84;21220;-73
2020/12/09 04:10:48;;;;;;;4.13;2.43;;;;;;;-5.05;74.65;101123.36;1700565;84;21027;-74
2020/12/09 04:13:15;;;;;;;2.50;2.03;;;;;;;-5.04;74.69;101126.42;1700577;84;21106;-74
2020/12/09 04:15:45;;;;;;;2.80;2.00;;;;;;;-5.04;74.69;101121.61;1700423;83;21142;-73
2020/12/09 04:18:13;;;;;;;2.20;2.10;;;;;;;-5.04;74.71;101130.84;1700546;84;21172;-73
2020/12/09 04:20:41;;;;;;;1.77;1.67;;;;;;;-5.04;74.77;101130.38;1700588;84;21173;-73
2020/12/09 04:23:09;;;;;;;3.73;2.77;;;;;;;-5.04;74.79;101139.61;1700323;84;21031;-74
2020/12/09 04:25:36;;;;;;;4.57;2.37;;;;;;;-5.03;74.80;101135.19;1700469;84;21099;-73
2020/12/09 04:28:04;;;;;;;2.37;2.00;;;;;;;-5.02;74.80;101140.42;1700359;84;21106;-74
2020/12/09 04:30:32;;;;;;;2.80;1.70;;;;;;;-5.03;74.80;101141.78;1700392;84;20904;-74
2020/12/09 04:33:00;;;;;;;3.07;2.23;;;;;;;-5.03;74.79;101140.03;1700428;84;21446;-74
2020/12/09 04:35:28;;;;;;;4.13;2.53;;;;;;;-5.03;74.80;101136.08;1700561;83;21071;-74
2020/12/09 04:37:56;;;;;;;6.70;3.90;;;;;;;-5.03;74.84;101136.08;1709743;82;21022;-73
2020/12/09 04:40:25;;;;;;;2.70;2.27;;;;;;;-5.03;74.81;101135.19;1716608;83;21036;-73
2020/12/09 04:43:01;;;;;;;2.97;1.73;;;;;;;-5.05;74.75;101136.55;1716621;83;21024;-74
2020/12/09 04:45:32;;;;;;;2.50;2.30;;;;;;;-5.07;74.70;101142.33;1698252;83;22250;-74
2020/12/09 04:48:14;;;;;;;1.67;1.57;;;;;;;-5.09;74.68;101141.98;1692496;84;21034;-75
2020/12/09 04:51:32;;;;;;;2.43;2.23;;;;;;;-5.11;74.62;101147.76;1623021;87;21609;-74
2020/12/09 04:54:01;;;;;;;2.20;1.60;;;;;;;-5.15;74.56;101152.25;1637328;87;21068;-75
2020/12/09 04:56:39;;;;;;;3.27;2.13;;;;;;;-5.18;74.55;101150.55;1640148;87;21166;-75
2020/12/09 04:59:18;;;;;;;3.60;2.40;;;;;;;-5.18;74.62;101153.66;1640084;87;21369;-75
2020/12/09 05:02:03;;;;;;;3.97;2.07;;;;;;;-5.16;74.68;101156.64;1618358;87;21056;-76
2020/12/09 05:04:38;;;;;;;1.70;1.60;;;;;;;-5.10;74.71;101154.73;1845298;76;22674;-75
2020/12/09 05:07:11;;;;;;;2.03;1.93;;;;;;;-5.14;74.70;101152.64;1815392;79;21498;-74
2020/12/09 05:09:45;;;;;;;5.25;2.22;;;;;;;-5.12;74.68;101157.88;1815601;78;21188;-76
2020/12/09 05:12:16;;;;;;;1.67;1.57;;;;;;;-5.12;74.57;101160.52;1783958;79;20992;-74
2020/12/09 05:14:47;;;;;;;2.30;1.53;;;;;;;-5.17;74.38;101163.27;1728238;81;21031;-75
2020/12/09 05:17:20;;;;;;;2.57;1.53;;;;;;;-5.24;74.25;101153.81;1728003;81;21008;-75
2020/12/09 05:19:48;;;;;;;2.65;2.22;;;;;;;-5.29;74.13;101153.95;1728494;83;20961;-73
2020/12/09 05:22:21;;;;;;;2.20;1.33;;;;;;;-5.34;74.03;101159.81;1728011;83;21411;-76
2020/12/09 05:24:56;;;;;;;2.37;2.03;;;;;;;-5.38;73.94;101156.86;1851940;76;22682;-75
2020/12/09 05:27:23;;;;;;;1.70;1.60;;;;;;;-5.48;73.92;101144.36;1782789;80;20919;-74
2020/12/09 05:29:52;;;;;;;1.70;1.60;;;;;;;-5.54;73.88;101159.89;1855226;77;21373;-74
2020/12/09 05:32:21;;;;;;;3.20;2.20;;;;;;;-5.58;73.90;101153.42;1855180;77;21016;-75
2020/12/09 05:34:49;;;;;;;1.70;1.53;;;;;;;-5.64;73.88;101157.55;1855256;77;21517;-75
2020/12/09 05:37:17;;;;;;;1.87;1.77;;;;;;;-5.70;73.90;101156.38;1855114;77;20954;-75
2020/12/09 05:39:53;;;;;;;4.80;3.27;;;;;;;-5.76;73.96;101154.77;1855338;77;21439;-75
2020/12/09 05:42:23;;;;;;;2.43;2.23;;;;;;;-5.79;74.02;101162.32;1855241;77;21192;-75
2020/12/09 05:44:51;;;;;;;10.50;2.70;;;;;;;-5.79;74.12;101163.64;1847947;77;21036;-74
2020/12/09 05:49:49;;;;;;;2.17;2.00;;;;;;;-5.81;74.19;101161.92;1737911;82;21097;-75
2020/12/09 05:52:25;;;;;;;7.03;3.37;;;;;;;-5.78;74.26;101159.22;1873766;76;27762;-75
2020/12/09 05:54:53;;;;;;;5.70;3.23;;;;;;;-5.83;74.32;101158.47;1860962;77;20986;-75
2020/12/09 05:57:25;;;;;;;3.73;3.00;;;;;;;-5.81;74.26;101158.83;1861018;77;21258;-75
2020/12/09 05:59:54;;;;;;;4.80;2.83;;;;;;;-5.85;74.28;101167.73;1860957;77;20891;-73
2020/12/09 06:02:24;;;;;;;6.77;2.70;;;;;;;-5.89;74.37;101162.13;1860816;77;21051;-75
2020/12/09 06:04:56;;;;;;;2.23;2.10;;;;;;;-5.93;74.41;101160.49;1855999;77;21028;-75
2020/12/09 06:07:26;;;;;;;2.50;2.02;;;;;;;-5.93;74.55;101160.49;1861100;77;20951;-75
2020/12/09 06:10:16;;;;;;;3.50;2.23;;;;;;;-5.97;74.61;101150.95;1860815;77;21362;-76
2020/12/09 06:12:54;;;;;;;3.83;1.93;;;;;;;-5.99;74.68;101159.34;1855767;77;20982;-74
2020/12/09 06:15:33;;;;;;;2.90;2.20;;;;;;;-5.93;74.94;101160.03;1884222;74;23289;-72
2020/12/09 06:18:10;;;;;;;3.27;2.03;;;;;;;-5.95;75.01;101148.67;1787886;80;21499;-74
2020/12/09 06:20:39;;;;;;;4.67;2.57;;;;;;;-5.92;75.08;101160.89;1786591;79;21335;-74
2020/12/09 06:23:15;;;;;;;5.43;3.03;;;;;;;-5.94;75.05;101152.16;1780959;80;20993;-75
2020/12/09 06:25:44;;;;;;;2.40;2.20;;;;;;;-5.97;75.08;101161.02;1794453;79;21040;-75
2020/12/09 06:28:18;;;;;;;5.80;2.80;;;;;;;-5.97;75.20;101158.39;1795014;80;21001;-75
2020/12/09 06:30:46;;;;;;;3.47;2.57;;;;;;;-5.97;75.30;101172.87;1687196;84;21050;-76
2020/12/09 06:33:33;;;;;;;3.40;2.37;;;;;;;-5.96;75.35;101160.13;1732388;82;21203;-76
2020/12/09 06:36:23;;;;;;;4.47;3.17;;;;;;;-5.89;75.49;101160.81;1845575;76;22160;-75
2020/12/09 06:39:16;;;;;;;3.47;2.40;;;;;;;-5.92;75.54;101176.23;1815461;79;20988;-74
2020/12/09 06:41:59;;;;;;;2.67;2.45;;;;;;;-5.87;75.61;101170.86;1815565;79;24468;-76
2020/12/09 06:44:30;;;;;;;4.33;3.47;;;;;;;-5.83;75.66;101176.45;1815466;79;20933;-73
2020/12/09 06:46:59;;;;;;;3.93;2.70;;;;;;;-5.76;75.65;101183.29;1815553;78;20968;-77
2020/12/09 06:49:33;;;;;;;4.43;3.70;;;;;;;-5.68;75.68;101184.86;1815498;79;21052;-77
2020/12/09 06:52:10;;;;;;;;;;;;;;;-5.61;75.63;101178.09;1796611;79;21569;-77
2020/12/09 06:54:48;;;;;;;4.73;2.83;;;;;;;-5.54;75.55;101177.48;1780529;80;21351;-76
2020/12/09 06:57:32;;;;;;;7.37;3.27;;;;;;;-5.49;75.42;101180.84;1740223;82;21059;-77
2020/12/09 07:00:22;;;;;;;8.83;4.30;;;;;;;-5.44;75.33;101169.72;1745997;81;20981;-79
2020/12/09 07:02:52;;;;;;;6.73;3.37;;;;;;;-5.36;75.26;101162.95;1765232;81;21012;-77
2020/12/09 07:05:26;;;;;;;5.13;2.60;;;;;;;-5.25;75.25;101181.95;1765003;81;21538;-75
2020/12/09 07:08:04;;;;;;;2.60;1.80;;;;;;;-5.12;75.17;101171.92;1766349;81;21277;-72
2020/12/09 07:10:35;;;;;;;3.60;2.93;;;;;;;-4.99;75.02;101162.77;1713796;83;21566;-74
2020/12/09 07:13:09;;;;;;;4.47;1.87;;;;;;;-4.89;74.83;101167.30;1688236;83;21248;-74
2020/12/09 07:15:47;;;;;;;2.83;2.23;;;;;;;-4.81;74.51;101161.36;1694032;83;21637;-71
2020/12/09 07:18:14;;;;;;;2.27;2.13;;;;;;;-4.76;74.37;101161.23;1688797;83;21558;-71
2020/12/09 07:20:43;;;;;;;2.80;2.10;;;;;;;-4.66;74.25;101163.13;1707454;83;22143;-71
2020/12/09 07:23:12;;;;;;;4.63;3.47;;;;;;;-4.51;74.25;101160.48;1719797;83;21059;-71
2020/12/09 07:25:41;;;;;;;6.00;3.67;;;;;;;-4.43;73.90;101162.41;1715968;83;21092;-72
2020/12/09 07:28:09;;;;;;;3.00;2.40;;;;;;;-4.37;73.61;101173.23;1716928;83;21020;-72
2020/12/09 07:30:37;;;;;;;6.70;2.77;;;;;;;-4.34;73.33;101166.08;1708049;83;21028;-74
2020/12/09 07:33:07;;;;;;;4.20;2.70;;;;;;;-4.36;73.03;101167.05;1711800;83;22355;-72
2020/12/09 07:35:35;;;;;;;7.03;4.40;;;;;;;-4.40;72.96;101175.06;1719595;83;21052;-73
2020/12/09 07:38:03;;;;;;;2.43;2.23;;;;;;;-4.42;72.97;101171.61;1707643;82;21031;-72
2020/12/09 07:40:33;;;;;;;2.90;2.57;;;;;;;-4.40;72.95;101175.06;1730137;82;21147;-63
2020/12/09 07:43:07;;;;;;;5.70;2.10;;;;;;;-4.34;73.04;101166.08;1718582;82;21198;-63
2020/12/09 07:45:43;;;;;;;4.43;3.00;;;;;;;-4.27;72.94;101166.75;1727836;82;21035;-64
2020/12/09 07:48:18;;;;;;;1.73;1.60;;;;;;;-4.15;72.99;101166.36;1888948;76;22734;-63
2020/12/09 07:50:51;;;;;;;6.50;3.17;;;;;;;-4.05;73.06;101170.44;1843810;77;20945;-64
2020/12/09 07:53:19;;;;;;;2.67;2.35;;;;;;;-3.91;72.90;101172.63;1828288;77;22155;-65
2020/12/09 07:55:47;;;;;;;4.53;2.47;;;;;;;-3.86;72.66;101172.03;1828672;77;20958;-63
2020/12/09 07:58:17;;;;;;;9.77;2.47;;;;;;;-3.82;72.49;101167.50;1826367;77;21604;-66
2020/12/09 08:00:47;;;;;;;3.07;1.73;;;;;;;-3.76;72.48;101180.49;1836239;77;21056;-68
2020/12/09 08:03:21;;;;;;;6.77;3.20;;;;;;;-3.63;72.51;101180.94;1836332;77;21049;-63
2020/12/09 08:05:50;;;;;;;3.77;2.43;;;;;;;-3.52;72.42;101176.16;1828763;77;21365;-66
2020/12/09 08:08:20;;;;;;;5.30;2.90;;;;;;;-3.44;72.17;101183.81;1858378;77;21578;-67
2020/12/09 08:10:51;;;;;;;2.30;2.00;;;;;;;-3.45;71.82;101184.28;1825619;78;21034;-68
2020/12/09 08:13:24;;;;;;;2.70;2.50;;;;;;;-3.47;71.67;101183.48;1828826;77;21130;-66
2020/12/09 08:16:07;;;;;;;2.70;2.33;;;;;;;-3.43;71.63;101181.59;1866491;76;25389;-67
2020/12/09 08:18:36;;;;;;;4.80;2.47;;;;;;;-3.50;71.64;101175.64;1839926;77;21526;-66
2020/12/09 08:21:04;;;;;;;2.03;1.90;;;;;;;-3.51;71.75;101179.19;1827067;78;23668;-68
2020/12/09 08:23:46;;;;;;;1.97;1.80;;;;;;;-3.44;71.93;101182.02;1827186;77;20977;-65
2020/12/09 08:26:30;;;;;;;;;;;;;;;-3.34;71.99;101173.79;1846999;77;20965;-66
2020/12/09 08:28:58;;;;;;;6.00;3.57;;;;;;;-3.28;71.82;101171.77;1782007;78;20166;-68
2020/12/09 08:31:37;;;;;;;3.10;2.17;;;;;;;-3.27;71.65;101181.44;1789185;79;21040;-65
2020/12/09 08:34:21;;;;;;;2.57;2.30;;;;;;;-3.21;71.61;101170.23;1831320;76;24165;-67
2020/12/09 08:36:50;;;;;;;2.65;2.17;;;;;;;-3.27;71.61;101168.69;1734968;82;21045;-67
2020/12/09 08:39:18;;;;;;;3.90;2.50;;;;;;;-3.27;71.65;101164.25;1770205;81;21434;-67
2020/12/09 08:41:47;;;;;;;3.73;2.50;;;;;;;-3.20;71.69;101149.02;1747186;81;20945;-67
2020/12/09 08:44:16;;;;;;;2.33;2.23;;;;;;;-3.16;71.51;101155.06;1776342;79;20959;-73
2020/12/09 08:46:45;;;;;;;2.90;2.63;;;;;;;-3.16;71.40;101153.73;1771875;79;20942;-73
2020/12/09 08:49:14;;;;;;;6.40;3.23;;;;;;;-3.13;71.35;101154.96;1767056;79;21005;-75
2020/12/09 08:51:43;;;;;;;5.67;2.97;;;;;;;-3.06;71.40;101149.37;1754505;79;21119;-78
2020/12/09 08:54:11;;;;;;;3.07;2.77;;;;;;;-2.92;71.46;101151.95;1723410;81;21028;-73
2020/12/09 08:56:39;;;;;;;4.83;3.13;;;;;;;-2.79;71.27;101138.66;1767792;79;21028;-76
2020/12/09 08:59:09;;;;;;;3.20;2.27;;;;;;;-2.69;70.90;101142.69;1763100;79;20969;-73
2020/12/09 09:01:40;;;;;;;4.57;2.53;;;;;;;-2.56;70.87;101135.13;1761421;79;21068;-73
2020/12/09 09:04:09;;;;;;;3.10;2.27;;;;;;;-2.42;70.59;101134.58;1757856;79;21143;-76
2020/12/09 09:06:37;;;;;;;5.37;3.20;;;;;;;-2.33;70.28;101130.70;1751721;80;20958;-79
2020/12/09 09:09:06;;;;;;;3.23;2.33;;;;;;;-2.30;70.01;101135.42;1773490;79;20949;-74
2020/12/09 09:11:35;;;;;;;2.33;2.00;;;;;;;-2.21;69.87;101139.92;1785039;79;21012;-75
2020/12/09 09:14:02;;;;;;;5.30;2.53;;;;;;;-2.11;69.71;101139.52;1782917;79;21076;-72
2020/12/09 09:16:31;;;;;;;2.93;1.93;;;;;;;-2.00;69.33;101142.16;1776205;79;22279;-73
2020/12/09 09:18:58;;;;;;;2.37;2.17;;;;;;;-1.89;69.20;101133.75;1732202;82;20924;-75
2020/12/09 09:21:34;;;;;;;3.27;2.20;;;;;;;-1.76;69.11;101137.15;1764333;79;21020;-74
2020/12/09 09:24:02;;;;;;;7.73;3.10;;;;;;;-1.63;68.71;101137.95;1775591;79;21131;-75
2020/12/09 09:26:34;;;;;;;5.67;3.30;;;;;;;-1.50;68.57;101130.34;1735536;80;21025;-73
2020/12/09 09:29:10;;;;;;;6.03;2.58;;;;;;;-1.42;68.07;101137.48;1770203;79;21447;-73
2020/12/09 09:31:54;;;;;;;4.87;3.03;;;;;;;-1.39;67.92;101137.36;1732954;81;21107;-73
2020/12/09 09:34:22;;;;;;;3.67;2.47;;;;;;;-1.33;67.75;101129.11;1756802;79;20965;-72
2020/12/09 09:36:50;;;;;;;2.90;2.60;;;;;;;-1.29;67.60;101133.38;1760697;79;21073;-73
2020/12/09 09:39:18;;;;;;;9.93;3.37;;;;;;;-1.26;67.23;101133.69;1757575;79;21009;-75
2020/12/09 09:41:46;;;;;;;7.17;3.83;;;;;;;-1.25;66.96;101116.38;1764171;79;21485;-72
2020/12/09 09:44:17;;;;;;;1.87;1.70;;;;;;;-1.24;66.82;101125.19;1750766;80;20956;-70
2020/12/09 09:46:47;;;;;;;;;;;;;;;-1.21;66.82;101123.26;1771515;81;21048;-71
2020/12/09 09:49:16;;;;;;;2.00;1.57;;;;;;;-1.15;66.72;101126.13;1759727;81;20189;-71
2020/12/09 09:51:43;;;;;;;5.83;2.50;;;;;;;-1.10;66.55;101116.13;1754218;80;21147;-74
2020/12/09 09:54:12;;;;;;;5.10;2.83;;;;;;;-0.97;66.51;101113.80;1756145;81;21218;-77
2020/12/09 09:56:42;;;;;;;3.53;3.00;;;;;;;-0.84;66.21;101112.28;1746025;81;21056;-74
2020/12/09 09:59:10;;;;;;;5.33;2.77;;;;;;;-0.72;65.96;101109.53;1758511;81;21024;-75
2020/12/09 10:01:38;;;;;;;6.33;3.07;;;;;;;-0.56;65.90;101109.66;1763080;81;21004;-74
2020/12/09 10:04:08;;;;;;;10.07;3.70;;;;;;;-0.44;65.45;101102.42;1739877;81;21020;-78
2020/12/09 10:06:36;;;;;;;4.77;2.63;;;;;;;-0.32;64.84;101105.41;1743534;81;20972;-77
2020/12/09 10:09:06;;;;;;;7.40;3.20;;;;;;;-0.23;64.79;101112.48;1749295;81;21001;-74
2020/12/09 10:11:38;;;;;;;7.67;3.90;;;;;;;-0.11;64.44;101105.67;1750299;81;21029;-73
2020/12/09 10:14:07;;;;;;;5.03;2.70;;;;;;;0.04;64.22;101111.19;1745522;81;21487;-71
2020/12/09 10:16:36;;;;;;;4.27;3.50;;;;;;;0.13;63.68;101100.93;1729428;82;20985;-73
2020/12/09 10:19:04;;;;;;;5.97;3.40;;;;;;;0.23;63.29;101102.66;1754314;81;21367;-79
2020/12/09 10:21:33;;;;;;;5.70;3.33;;;;;;;0.30;62.84;101088.55;1740927;81;21024;-72
2020/12/09 10:24:03;;;;;;;4.67;3.23;;;;;;;0.34;62.77;101080.83;1753788;81;21012;-74
2020/12/09 10:26:38;;;;;;;5.60;2.83;;;;;;;0.45;62.59;101082.92;1734941;81;21012;-72
2020/12/09 10:29:09;;;;;;;3.90;2.67;;;;;;;0.54;62.30;101078.44;1657778;86;21052;-73
2020/12/09 10:31:44;;;;;;;6.10;2.93;;;;;;;0.54;61.57;101080.62;1676412;85;21219;-71
2020/12/09 10:34:15;;;;;;;9.93;3.23;;;;;;;0.51;61.19;101079.92;1690109;82;21061;-69
2020/12/09 10:36:48;;;;;;;3.90;2.63;;;;;;;0.49;61.35;101071.16;1687562;85;21247;-69
2020/12/09 10:39:19;;;;;;;;;;;;;;;0.49;61.06;101077.34;1690934;83;21095;-68
2020/12/09 10:41:50;;;;;;;9.00;3.90;;;;;;;0.49;61.03;101056.05;1692975;84;20739;-73
2020/12/09 10:44:19;;;;;;;6.73;3.43;;;;;;;0.51;60.98;101063.95;1692360;84;21345;-70
2020/12/09 10:46:47;;;;;;;13.07;4.23;;;;;;;0.54;60.94;101066.46;1690159;84;20980;-70
2020/12/09 10:49:16;;;;;;;7.03;3.63;;;;;;;0.63;61.03;101063.78;1698548;83;20969;-72
2020/12/09 10:51:49;;;;;;;7.87;3.50;;;;;;;0.71;61.03;101061.09;1689159;83;20984;-70
2020/12/09 10:54:18;;;;;;;13.40;4.28;;;;;;;0.90;61.27;101061.41;1672786;85;21012;-70
2020/12/09 10:56:46;;;;;;;8.57;3.30;;;;;;;1.03;60.31;101052.30;1662446;84;21241;-70
2020/12/09 10:59:16;;;;;;;6.57;3.30;;;;;;;1.05;60.11;101052.59;1641429;87;21642;-71
2020/12/09 11:01:45;;;;;;;4.83;2.40;;;;;;;1.05;59.77;101061.91;1673983;84;20992;-70
2020/12/09 11:04:14;;;;;;;7.77;3.17;;;;;;;1.06;59.94;101049.00;1644759;87;21149;-71
2020/12/09 11:06:44;;;;;;;5.50;2.60;;;;;;;1.16;60.06;101049.81;1672853;85;21033;-69
2020/12/09 11:09:12;;;;;;;8.63;3.17;;;;;;;1.27;59.83;101043.39;1673467;85;22104;-71
2020/12/09 11:11:45;;;;;;;6.97;3.53;;;;;;;1.36;59.53;101044.67;1673993;85;21032;-70
2020/12/09 11:14:10;;;;;;;7.37;3.80;;;;;;;1.41;59.29;101042.61;1671019;85;21202;-71
2020/12/09 11:16:38;;;;;;;10.80;3.93;;;;;;;1.47;59.18;101032.91;1674148;85;21214;-71
2020/12/09 11:19:06;;;;;;;5.20;3.13;;;;;;;1.52;58.95;101040.17;1674217;85;21632;-74
2020/12/09 11:21:34;;;;;;;5.23;2.80;;;;;;;1.51;58.81;101036.66;1685424;84;21597;-68
2020/12/09 11:24:02;;;;;;;7.43;3.50;;;;;;;1.55;58.85;101040.01;1681747;84;21036;-72
2020/12/09 11:26:31;;;;;;;8.10;3.30;;;;;;;1.61;58.70;101038.34;1754644;80;21011;-70
2020/12/09 11:28:59;;;;;;;7.40;3.17;;;;;;;1.64;58.38;101029.28;1753705;81;21044;-69
2020/12/09 11:31:27;;;;;;;5.87;3.13;;;;;;;1.66;58.41;101024.23;1724569;82;21122;-70
2020/12/09 11:33:56;;;;;;;8.37;3.03;;;;;;;1.71;58.21;101020.83;1766972;80;21209;-69
2020/12/09 11:36:25;;;;;;;7.53;3.30;;;;;;;1.74;58.00;101017.14;1763638;81;20946;-70
2020/12/09 11:38:54;;;;;;;10.07;4.00;;;;;;;1.74;57.83;101018.47;1763640;81;21033;-71
2020/12/09 11:41:27;;;;;;;8.40;4.10;;;;;;;1.78;57.83;101016.00;1763583;81;21017;-74
2020/12/09 11:43:55;;;;;;;6.33;2.92;;;;;;;1.80;57.76;101018.09;1763927;81;21932;-70